Time;durP1;ratioP1;P1;durP2;ratioP2;P2;SDS_P1;SDS_P2;PMS_P1;PMS_P2;Temp;Humidity;BMP_temperature;BMP_pressure;BME280_temperature;BME280_humidity;BME280_pressure;Samples;Min_cycle;Max_cycle;Signal;HPM_P1;HPM_P2
2022/08/01 00:00:05;;;;;;;8.20;2.40;;;;;;;18.39;77.93;98393.42;104815;1271;62871;-22
2022/08/01 00:02:37;;;;;;;3.60;2.90;;;;;;;18.80;77.69;98393.95;104917;1271;62780;-22
2022/08/01 00:05:06;;;;;;;5.10;3.40;;;;;;;19.33;76.25;98393.16;105080;1271;75178;-22
2022/08/01 00:07:34;;;;;;;3.90;3.20;;;;;;;19.35;75.61;98393.29;104942;1271;75951;-23
2022/08/01 00:10:06;;;;;;;5.80;3.30;;;;;;;19.16;75.92;98397.52;105087;1271;74280;-22
2022/08/01 00:12:34;;;;;;;6.10;4.10;;;;;;;18.88;76.35;98395.66;104970;1272;61781;-22
2022/08/01 00:15:01;;;;;;;5.40;3.70;;;;;;;18.59;77.42;98399.18;104899;1271;61325;-23
2022/08/01 00:17:31;;;;;;;3.60;3.10;;;;;;;18.40;78.76;98399.87;104896;1271;75635;-23
2022/08/01 00:19:59;;;;;;;5.90;3.20;;;;;;;18.70;79.37;98396.45;104952;1271;77117;-23
2022/08/01 00:22:27;;;;;;;6.40;3.90;;;;;;;19.15;77.62;98397.60;105138;1271;75409;-21
2022/08/01 00:24:54;;;;;;;7.80;4.00;;;;;;;19.20;77.02;98396.16;105116;1271;61912;-24
2022/08/01 00:27:21;;;;;;;4.80;3.10;;;;;;;19.03;76.42;98394.06;105108;1271;62142;-25
2022/08/01 00:29:49;;;;;;;5.40;3.30;;;;;;;18.81;76.51;98397.41;105197;1271;76294;-23
2022/08/01 00:32:36;;;;;;;6.40;3.30;;;;;;;18.52;77.02;98395.65;105046;1271;76755;-24
2022/08/01 00:35:03;;;;;;;2.90;2.10;;;;;;;18.31;78.05;98393.01;105122;1271;74328;-25
2022/08/01 00:37:31;;;;;;;3.10;2.70;;;;;;;18.69;78.10;98389.84;105157;1271;61898;-25
2022/08/01 00:39:58;;;;;;;4.00;3.20;;;;;;;19.15;76.65;98390.46;105114;1271;61110;-24
2022/08/01 00:42:26;;;;;;;5.70;3.80;;;;;;;19.19;76.53;98388.20;105028;1271;76572;-24
2022/08/01 00:44:53;;;;;;;4.70;4.00;;;;;;;19.04;76.76;98389.99;104993;1270;77003;-25
2022/08/01 00:47:22;;;;;;;6.00;4.30;;;;;;;18.80;77.20;98389.73;105014;1271;75514;-24
2022/08/01 00:49:49;;;;;;;6.10;4.20;;;;;;;18.53;78.62;98384.66;104990;1271;62889;-24
2022/08/01 00:52:17;;;;;;;3.70;2.80;;;;;;;18.33;79.87;98383.52;104759;1271;62028;-24
2022/08/01 00:54:44;;;;;;;8.40;3.10;;;;;;;18.77;79.15;98378.52;104929;1271;76110;-24
2022/08/01 00:57:11;;;;;;;4.30;3.50;;;;;;;19.33;77.10;98376.27;104972;1271;75946;-24
2022/08/01 00:59:41;;;;;;;4.40;3.60;;;;;;;19.38;76.05;98373.33;105010;1271;74086;-24
2022/08/01 01:02:09;;;;;;;6.50;4.00;;;;;;;19.20;76.55;98372.61;105150;1271;61068;-24
2022/08/01 01:04:42;;;;;;;6.60;4.10;;;;;;;18.95;76.99;98368.44;105178;1271;61666;-24
2022/08/01 01:07:19;;;;;;;5.30;3.30;;;;;;;18.71;77.91;98366.23;104755;1271;76603;-24
2022/08/01 01:09:52;;;;;;;5.40;3.50;;;;;;;19.09;77.79;98369.61;104776;1271;76772;-24
2022/08/01 01:12:25;;;;;;;5.80;3.70;;;;;;;19.48;76.31;98367.66;104818;1271;75512;-24
2022/08/01 01:14:53;;;;;;;;;;;;;;;19.43;75.91;98365.46;105014;1271;61165;-24
2022/08/01 01:17:25;;;;;;;12.10;3.90;;;;;;;19.20;76.53;98364.50;105195;1271;62832;-24
2022/08/01 01:20:13;;;;;;;6.30;3.90;;;;;;;18.92;77.14;98364.58;105166;1271;75257;-24
2022/08/01 01:22:53;;;;;;;5.50;3.40;;;;;;;18.69;78.43;98358.45;105114;1271;77016;-24
2022/08/01 01:25:23;;;;;;;5.70;2.80;;;;;;;19.01;78.68;98362.30;104870;1271;75690;-24
2022/08/01 01:28:03;;;;;;;7.50;3.40;;;;;;;19.45;76.81;98361.44;105107;1271;62900;-24
2022/08/01 01:30:32;;;;;;;4.30;3.50;;;;;;;19.46;76.12;98363.10;105114;1271;60955;-24
2022/08/01 01:33:02;;;;;;;5.40;3.90;;;;;;;19.29;76.06;98362.36;104964;1271;76357;-24
2022/08/01 01:35:31;;;;;;;6.80;3.80;;;;;;;19.07;76.39;98363.55;104794;1271;75561;-24
2022/08/01 01:38:05;;;;;;;4.10;2.60;;;;;;;18.84;77.22;98363.63;104674;1271;75145;-24
2022/08/01 01:40:32;;;;;;;6.10;3.00;;;;;;;19.21;77.04;98367.58;105117;1271;61809;-24
2022/08/01 01:43:00;;;;;;;3.50;3.10;;;;;;;19.59;75.62;98364.97;105064;1271;61756;-24
2022/08/01 01:45:27;;;;;;;4.20;3.70;;;;;;;19.54;75.07;98367.88;105111;1272;76650;-24
2022/08/01 01:47:54;;;;;;;6.80;4.10;;;;;;;19.32;75.65;98367.66;104962;1271;77117;-24
2022/08/01 01:50:22;;;;;;;6.50;3.80;;;;;;;19.05;76.28;98368.70;104931;1271;75264;-24
2022/08/01 01:52:49;;;;;;;7.50;4.20;;;;;;;18.77;76.83;98367.13;105003;1271;61797;-24
2022/08/01 01:55:16;;;;;;;4.70;2.80;;;;;;;18.54;77.90;98370.89;105144;1271;61704;-24
2022/08/01 01:57:44;;;;;;;10.00;4.20;;;;;;;18.90;77.73;98366.27;105137;1271;75568;-24
2022/08/01 02:00:14;;;;;;;3.90;3.30;;;;;;;19.32;76.01;98363.52;105005;1271;76026;-24
2022/08/01 02:02:42;;;;;;;6.80;3.30;;;;;;;19.30;75.77;98362.30;105143;1271;75339;-24
2022/08/01 02:05:11;;;;;;;7.60;3.70;;;;;;;19.08;76.01;98364.48;105187;1271;63101;-24
2022/08/01 02:07:39;;;;;;;6.00;4.00;;;;;;;18.79;76.55;98361.73;104880;1271;61712;-24
2022/08/01 02:10:06;;;;;;;4.50;3.90;;;;;;;18.47;77.39;98363.58;105056;1271;76359;-24
2022/08/01 02:12:36;;;;;;;5.10;2.50;;;;;;;18.24;78.52;98360.39;105004;1271;77015;-24
2022/08/01 02:15:04;;;;;;;5.90;3.20;;;;;;;18.64;78.44;98358.16;105131;1271;75239;-24
2022/08/01 02:17:32;;;;;;;5.60;3.40;;;;;;;19.12;76.87;98358.48;105087;1271;63087;-24
2022/08/01 02:19:59;;;;;;;4.80;3.30;;;;;;;19.13;76.08;98357.78;105181;1271;62765;-24
2022/08/01 02:22:41;;;;;;;6.10;3.40;;;;;;;18.90;76.14;98357.09;105059;1271;76259;-24
2022/08/01 02:25:28;;;;;;;5.20;3.50;;;;;;;18.61;77.03;98350.89;104756;1271;76311;-25
2022/08/01 02:27:55;;;;;;;4.60;3.60;;;;;;;18.27;78.07;98353.59;105135;1272;74210;-24
2022/08/01 02:30:23;;;;;;;5.70;2.70;;;;;;;18.04;79.05;98354.25;105088;1271;62411;-24
2022/08/01 02:33:00;;;;;;;4.70;3.30;;;;;;;18.40;78.75;98351.14;104981;1271;61604;-24
2022/08/01 02:35:28;;;;;;;6.00;3.50;;;;;;;18.88;77.22;98353.09;104814;1271;75770;-24
2022/08/01 02:37:57;;;;;;;6.30;3.70;;;;;;;18.83;76.73;98351.94;105082;1271;76954;-23
2022/08/01 02:40:29;;;;;;;4.50;3.40;;;;;;;18.58;77.17;98349.95;104911;1274;75381;-24
2022/08/01 02:42:57;;;;;;;12.20;5.10;;;;;;;18.26;78.10;98354.80;105017;1271;61148;-23
2022/08/01 02:45:25;;;;;;;8.70;3.30;;;;;;;18.05;79.12;98356.84;105052;1271;61911;-24
2022/08/01 02:47:55;;;;;;;4.60;2.90;;;;;;;18.41;78.99;98352.77;105112;1271;76548;-24
2022/08/01 02:50:23;;;;;;;9.40;3.60;;;;;;;18.92;77.45;98351.73;105158;1271;77105;-23
2022/08/01 02:52:50;;;;;;;5.30;3.30;;;;;;;18.97;76.67;98355.27;104970;1271;75254;-23
2022/08/01 02:55:18;;;;;;;5.40;3.60;;;;;;;18.78;76.51;98357.52;105046;1271;62896;-23
2022/08/01 02:57:46;;;;;;;5.60;4.20;;;;;;;18.49;77.31;98357.56;105050;1271;63151;-23
2022/08/01 03:00:18;;;;;;;;;;;;;;;18.21;78.27;98360.52;105007;1271;76442;-24
2022/08/01 03:02:50;;;;;;;4.10;3.30;;;;;;;18.56;78.08;98361.65;104977;1272;76662;-24
2022/08/01 03:05:18;;;;;;;4.00;3.10;;;;;;;18.99;76.72;98363.11;105087;1271;75346;-24
2022/08/01 03:07:45;;;;;;;3.90;3.30;;;;;;;18.99;76.29;98362.05;104916;1271;62046;-24
2022/08/01 03:10:14;;;;;;;7.30;3.80;;;;;;;18.74;76.28;98357.77;104992;1271;62006;-24
2022/08/01 03:12:42;;;;;;;4.20;3.20;;;;;;;18.41;77.39;98359.30;104788;1271;76552;-23
2022/08/01 03:15:11;;;;;;;6.10;3.90;;;;;;;18.10;78.51;98359.48;105136;1271;75984;-24
2022/08/01 03:17:38;;;;;;;5.00;2.70;;;;;;;17.85;79.38;98362.09;105110;1271;75553;-24
2022/08/01 03:20:08;;;;;;;4.10;3.00;;;;;;;18.24;79.24;98363.09;105096;1271;62845;-23
2022/08/01 03:22:35;;;;;;;4.90;3.10;;;;;;;18.73;77.55;98357.27;105188;1271;61696;-24
2022/08/01 03:25:03;;;;;;;3.60;3.20;;;;;;;18.74;77.02;98359.97;105078;1271;75541;-24
2022/08/01 03:27:31;;;;;;;4.70;3.80;;;;;;;18.55;77.67;98361.61;105190;1271;76963;-23
2022/08/01 03:29:58;;;;;;;4.20;3.80;;;;;;;18.32;78.18;98361.34;104969;1271;74107;-23
2022/08/01 03:32:25;;;;;;;3.60;2.50;;;;;;;18.13;78.73;98360.55;105047;1271;64455;-24
2022/08/01 03:34:53;;;;;;;4.60;3.20;;;;;;;18.49;78.45;98363.55;105135;1271;61642;-24
2022/08/01 03:37:40;;;;;;;6.90;2.90;;;;;;;18.98;77.15;98366.30;105126;1271;76618;-24
2022/08/01 03:40:38;;;;;;;6.00;3.90;;;;;;;18.98;76.55;98365.73;104983;1271;76813;-24
2022/08/01 03:43:11;;;;;;;4.20;3.60;;;;;;;18.78;76.99;98367.30;105089;1271;75270;-24
2022/08/01 03:45:40;;;;;;;5.80;4.40;;;;;;;18.57;77.51;98370.30;104974;1271;61711;-23
2022/08/01 03:48:13;;;;;;;4.00;2.90;;;;;;;18.39;78.33;98370.96;104763;1271;63156;-24
2022/08/01 03:50:42;;;;;;;5.40;3.40;;;;;;;18.86;78.38;98373.67;104834;1271;76354;-23
2022/08/01 03:53:10;;;;;;;5.30;3.60;;;;;;;19.41;76.47;98376.24;104736;1271;77526;-23
2022/08/01 03:55:38;;;;;;;7.10;3.80;;;;;;;19.55;75.73;98377.82;104929;1271;74323;-24
2022/08/01 03:58:05;;;;;;;5.20;4.10;;;;;;;19.48;75.47;98382.04;105075;1271;61965;-24
2022/08/01 04:00:39;;;;;;;6.60;3.60;;;;;;;19.30;75.65;98383.12;105031;1271;61103;-23
2022/08/01 04:03:10;;;;;;;5.70;3.80;;;;;;;19.10;76.20;98384.59;104927;1271;75274;-24
2022/08/01 04:05:40;;;;;;;9.30;2.90;;;;;;;18.96;76.90;98383.73;104837;1271;77045;-21
2022/08/01 04:08:08;;;;;;;3.50;3.00;;;;;;;19.44;76.53;98385.96;104936;1271;75579;-22
2022/08/01 04:10:35;;;;;;;4.90;3.90;;;;;;;19.97;74.95;98383.11;104964;1271;63010;-25
2022/08/01 04:13:03;;;;;;;5.60;3.30;;;;;;;20.03;74.40;98381.80;104765;1271;61026;-25
2022/08/01 04:15:30;;;;;;;6.80;3.70;;;;;;;19.86;74.84;98383.83;104898;1271;75466;-25
2022/08/01 04:17:58;;;;;;;8.10;3.50;;;;;;;19.58;75.56;98382.18;105047;1271;75883;-24
2022/08/01 04:20:26;;;;;;;5.40;4.50;;;;;;;19.28;76.77;98379.46;105119;1271;75336;-26
2022/08/01 04:22:53;;;;;;;6.50;3.50;;;;;;;19.01;78.32;98382.56;105087;1271;62316;-24
2022/08/01 04:25:31;;;;;;;9.80;3.90;;;;;;;19.33;78.39;98381.01;104959;1271;63080;-24
2022/08/01 04:27:58;;;;;;;8.60;3.30;;;;;;;19.91;76.84;98383.02;105114;1271;76611;-24
2022/08/01 04:30:27;;;;;;;8.80;5.30;;;;;;;20.04;75.69;98383.20;105124;1271;74920;-24
2022/08/01 04:32:55;;;;;;;8.70;4.30;;;;;;;19.86;75.47;98382.48;104935;1270;75512;-24
2022/08/01 04:35:24;;;;;;;8.80;4.00;;;;;;;19.51;76.25;98379.38;104732;1272;61191;-24
2022/08/01 04:38:21;;;;;;;8.70;3.60;;;;;;;19.40;77.32;98376.54;104793;1271;62957;-25
2022/08/01 04:40:50;;;;;;;7.50;3.60;;;;;;;20.01;76.76;98377.82;104679;1271;75469;-24
2022/08/01 04:43:20;;;;;;;7.20;3.60;;;;;;;20.50;74.66;98371.70;104868;1271;77435;-24
2022/08/01 04:45:48;;;;;;;6.20;4.20;;;;;;;20.57;73.86;98371.28;105135;1271;75808;-24
2022/08/01 04:48:16;;;;;;;8.40;4.40;;;;;;;20.52;74.20;98373.34;105009;1271;61080;-24
2022/08/01 04:50:44;;;;;;;11.00;4.60;;;;;;;20.38;74.40;98367.36;104955;1271;61093;-24
2022/08/01 04:53:16;;;;;;;7.20;4.60;;;;;;;20.19;74.69;98369.14;105100;1271;75201;-24
2022/08/01 04:55:45;;;;;;;6.00;3.20;;;;;;;20.09;75.64;98364.79;105111;1271;76958;-24
2022/08/01 04:58:14;;;;;;;7.50;3.90;;;;;;;20.63;75.41;98366.42;104737;1271;75249;-25
2022/08/01 05:00:45;;;;;;;7.00;4.00;;;;;;;21.09;72.69;98361.55;104986;1270;61154;-24
2022/08/01 05:03:13;;;;;;;7.10;3.90;;;;;;;21.08;73.20;98364.48;104877;1271;61036;-24
2022/08/01 05:05:44;;;;;;;7.20;3.50;;;;;;;20.88;73.09;98364.48;105117;1271;76674;-25
2022/08/01 05:08:11;;;;;;;6.70;4.40;;;;;;;20.71;73.02;98366.20;105062;1271;75624;-24
2022/08/01 05:10:39;;;;;;;6.10;4.10;;;;;;;20.49;73.78;98363.29;104980;1271;75408;-24
2022/08/01 05:13:06;;;;;;;7.40;3.30;;;;;;;20.30;74.24;98362.91;104869;1271;61958;-24
2022/08/01 05:15:38;;;;;;;6.30;3.90;;;;;;;20.58;73.30;98362.89;105126;1271;62985;-25
2022/08/01 05:18:06;;;;;;;5.20;4.20;;;;;;;20.88;71.81;98362.73;105118;1272;76540;-25
2022/08/01 05:20:36;;;;;;;5.60;4.10;;;;;;;20.86;71.79;98364.67;105180;1271;77069;-24
2022/08/01 05:23:04;;;;;;;8.70;4.10;;;;;;;20.78;73.18;98368.35;104901;1271;75415;-24
2022/08/01 05:25:38;;;;;;;5.60;4.10;;;;;;;20.62;73.26;98371.96;105133;1271;61092;-24
2022/08/01 05:28:24;;;;;;;5.40;4.40;;;;;;;20.52;73.86;98369.91;104973;1270;61179;-24
2022/08/01 05:30:54;;;;;;;4.80;3.80;;;;;;;20.47;73.87;98376.05;105097;1271;76452;-25
2022/08/01 05:33:22;;;;;;;3.80;3.30;;;;;;;20.99;72.66;98376.23;104985;1269;75486;-25
2022/08/01 05:35:50;;;;;;;5.90;3.90;;;;;;;21.49;70.39;98379.95;104937;1271;74250;-25
2022/08/01 05:38:17;;;;;;;7.00;5.10;;;;;;;21.55;70.02;98382.01;104846;1271;61796;-25
2022/08/01 05:40:44;;;;;;;7.90;5.50;;;;;;;21.55;70.93;98381.84;104892;1271;62940;-25
2022/08/01 05:43:12;;;;;;;9.60;5.60;;;;;;;21.47;70.81;98381.14;104515;1271;574763;-25
2022/08/01 05:45:41;;;;;;;8.80;5.80;;;;;;;21.37;71.25;98379.86;104539;1271;77162;-24
2022/08/01 05:48:08;;;;;;;9.80;5.50;;;;;;;21.18;70.24;98379.00;105049;1271;74719;-24
2022/08/01 05:50:36;;;;;;;7.00;3.90;;;;;;;21.04;71.53;98382.16;104907;1271;64786;-24
2022/08/01 05:53:03;;;;;;;6.30;3.60;;;;;;;21.56;70.68;98379.23;104724;1271;63157;-24
2022/08/01 05:55:30;;;;;;;5.80;3.80;;;;;;;22.08;69.26;98370.73;104917;1271;75407;-24
2022/08/01 05:57:58;;;;;;;7.50;4.10;;;;;;;22.23;68.96;98371.17;104859;1271;76024;-24
2022/08/01 06:00:25;;;;;;;4.50;3.50;;;;;;;22.23;67.98;98370.44;105012;1271;75129;-24
2022/08/01 06:02:52;;;;;;;4.00;3.50;;;;;;;22.25;68.55;98370.52;105021;1271;62755;-24
2022/08/01 06:05:20;;;;;;;4.50;3.10;;;;;;;22.28;68.64;98368.52;104917;1271;63014;-24
2022/08/01 06:07:47;;;;;;;4.30;3.50;;;;;;;22.27;67.56;98367.55;104863;1271;76540;-24
2022/08/01 06:10:17;;;;;;;3.80;3.40;;;;;;;22.25;68.16;98367.73;104799;1271;76085;-24
2022/08/01 06:12:44;;;;;;;5.60;4.30;;;;;;;22.20;67.43;98367.00;104968;1271;74345;-24
2022/08/01 06:15:11;;;;;;;3.00;2.40;;;;;;;22.15;68.71;98368.95;104922;1271;64843;-24
2022/08/01 06:17:41;;;;;;;2.90;2.30;;;;;;;22.75;67.21;98362.10;104913;1271;62708;-24
2022/08/01 06:20:09;;;;;;;4.20;2.40;;;;;;;23.42;65.04;98362.59;104928;1271;75506;-24
2022/08/01 06:22:36;;;;;;;6.30;3.20;;;;;;;23.65;64.38;98359.19;104689;1271;77403;-24
2022/08/01 06:25:04;;;;;;;4.10;3.10;;;;;;;23.60;64.18;98361.15;104923;1271;73332;-24
2022/08/01 06:27:34;;;;;;;4.90;3.30;;;;;;;23.51;63.76;98366.42;104748;1272;61894;-24
2022/08/01 06:30:03;;;;;;;4.60;3.00;;;;;;;23.37;63.53;98362.05;104696;1271;61910;-24
2022/08/01 06:32:30;;;;;;;3.70;3.00;;;;;;;23.31;64.51;98362.13;104802;1271;75590;-24
2022/08/01 06:34:58;;;;;;;4.00;3.10;;;;;;;23.31;64.31;98362.05;105106;1271;75461;-24
2022/08/01 06:37:30;;;;;;;3.60;2.90;;;;;;;23.28;64.28;98364.95;104930;1271;75510;-25
2022/08/01 06:40:05;;;;;;;3.90;3.10;;;;;;;23.38;64.35;98360.85;105105;1271;61277;-25
2022/08/01 06:42:35;;;;;;;8.60;4.40;;;;;;;23.52;63.57;98365.39;105133;1271;61787;-25
2022/08/01 06:45:07;;;;;;;3.60;3.30;;;;;;;23.49;63.11;98363.30;105064;1271;75267;-25
2022/08/01 06:47:34;;;;;;;5.10;3.10;;;;;;;23.50;63.19;98366.68;105129;1271;76868;-25
2022/08/01 06:50:03;;;;;;;4.60;2.80;;;;;;;23.54;63.50;98368.02;105102;1271;74570;-25
2022/08/01 06:52:30;;;;;;;4.30;2.90;;;;;;;23.43;63.45;98368.45;104735;1272;62116;-25
2022/08/01 06:54:57;;;;;;;4.20;3.40;;;;;;;23.34;65.89;98368.38;105112;1271;62938;-24
2022/08/01 06:57:25;;;;;;;5.10;3.30;;;;;;;23.37;64.74;98366.46;105022;1269;76703;-24
2022/08/01 06:59:53;;;;;;;4.50;3.10;;;;;;;23.38;63.86;98365.68;105144;1272;76944;-25
2022/08/01 07:02:26;;;;;;;4.40;3.60;;;;;;;23.32;63.80;98362.81;105084;1272;75527;-25
2022/08/01 07:04:53;;;;;;;6.40;3.50;;;;;;;23.36;63.87;98365.05;105062;1271;61108;-25
2022/08/01 07:07:21;;;;;;;3.30;2.90;;;;;;;23.37;63.26;98367.73;105002;1271;61702;-24
2022/08/01 07:09:48;;;;;;;3.30;3.00;;;;;;;23.34;63.13;98369.77;104819;1271;77273;-24
2022/08/01 07:12:18;;;;;;;3.90;2.90;;;;;;;23.31;63.04;98366.04;104942;1271;76769;-24
2022/08/01 07:14:45;;;;;;;4.70;2.90;;;;;;;23.29;64.33;98366.52;104990;1271;74384;-24
2022/08/01 07:17:13;;;;;;;4.00;3.20;;;;;;;23.25;63.42;98368.94;105091;1271;61180;-24
2022/08/01 07:19:40;;;;;;;5.40;2.70;;;;;;;23.18;63.47;98370.80;105109;1271;62204;-24
2022/08/01 07:22:08;;;;;;;5.70;2.60;;;;;;;23.17;63.34;98371.05;105025;1271;76691;-24
2022/08/01 07:24:36;;;;;;;2.60;2.10;;;;;;;23.78;61.49;98375.14;105054;1271;75912;-24
2022/08/01 07:27:09;;;;;;;4.00;2.40;;;;;;;24.50;60.21;98373.24;104828;1271;74307;-25
2022/08/01 07:29:52;;;;;;;3.20;2.90;;;;;;;24.56;60.25;98373.17;104850;1271;62741;-24
2022/08/01 07:32:21;;;;;;;5.90;2.70;;;;;;;24.32;59.52;98373.98;104761;1271;61874;-25
2022/08/01 07:34:49;;;;;;;3.50;2.60;;;;;;;24.13;60.19;98378.60;105011;1271;76473;-24
2022/08/01 07:37:16;;;;;;;3.20;2.80;;;;;;;24.02;61.23;98371.11;105013;1271;76973;-24
2022/08/01 07:40:05;;;;;;;3.10;2.60;;;;;;;23.96;60.60;98375.41;105004;1271;75438;-25
2022/08/01 07:42:32;;;;;;;4.10;2.80;;;;;;;23.94;61.12;98379.56;104843;1271;62994;-24
2022/08/01 07:45:00;;;;;;;3.10;2.90;;;;;;;23.81;60.77;98378.66;105170;1271;61983;-24
2022/08/01 07:47:28;;;;;;;3.20;2.70;;;;;;;23.68;62.26;98378.81;105159;1271;76569;-24
2022/08/01 07:49:59;;;;;;;4.80;3.00;;;;;;;23.61;62.33;98381.04;105123;1271;76913;-25
2022/08/01 07:52:27;;;;;;;3.00;2.70;;;;;;;23.57;63.43;98382.21;104939;1272;75429;-24
2022/08/01 07:54:56;;;;;;;5.20;3.10;;;;;;;23.48;63.15;98384.73;105132;1271;62967;-25
2022/08/01 07:57:23;;;;;;;4.10;2.90;;;;;;;23.36;62.91;98385.18;105124;1271;61691;-24
2022/08/01 07:59:51;;;;;;;3.30;2.40;;;;;;;23.33;63.18;98386.13;104846;1272;75559;-24
2022/08/01 08:02:18;;;;;;;6.50;3.00;;;;;;;23.20;64.77;98385.48;104940;1271;75981;-24
2022/08/01 08:04:46;;;;;;;3.60;2.70;;;;;;;23.14;64.75;98390.13;104932;1271;75191;-24
2022/08/01 08:07:15;;;;;;;5.10;3.10;;;;;;;23.23;63.55;98393.47;104891;1271;61704;-24
2022/08/01 08:09:43;;;;;;;3.30;3.00;;;;;;;23.37;63.48;98394.87;104892;1271;61131;-24
2022/08/01 08:12:17;;;;;;;3.80;3.00;;;;;;;23.45;64.41;98393.84;105039;1271;76543;-24
2022/08/01 08:14:54;;;;;;;4.10;2.60;;;;;;;23.58;63.18;98386.23;104773;1271;75746;-25
2022/08/01 08:17:23;;;;;;;3.70;2.60;;;;;;;24.35;61.53;98388.08;104805;1271;75354;-25
2022/08/01 08:19:51;;;;;;;2.80;2.30;;;;;;;24.94;59.82;98391.04;104880;1270;61130;-24
2022/08/01 08:22:18;;;;;;;4.30;3.00;;;;;;;25.13;58.98;98393.90;104755;1271;61903;-25
2022/08/01 08:24:45;;;;;;;4.00;2.70;;;;;;;25.12;57.93;98396.96;104997;1271;75456;-24
2022/08/01 08:27:13;;;;;;;5.60;2.90;;;;;;;25.01;58.46;98396.48;104753;1271;76914;-25
2022/08/01 08:29:40;;;;;;;4.30;2.90;;;;;;;25.02;58.27;98396.20;104918;1270;74340;-25
2022/08/01 08:32:07;;;;;;;3.20;2.90;;;;;;;24.97;58.79;98392.45;105041;1271;61704;-24
2022/08/01 08:34:35;;;;;;;2.90;2.70;;;;;;;24.99;57.09;98393.57;104894;1274;63086;-24
2022/08/01 08:37:03;;;;;;;3.90;2.80;;;;;;;25.18;58.58;98394.70;104980;1271;75712;-24
2022/08/01 08:39:31;;;;;;;5.30;2.50;;;;;;;25.23;57.02;98388.06;104731;1271;75737;-24
2022/08/01 08:42:10;;;;;;;3.40;2.50;;;;;;;25.11;55.72;98387.95;105118;1271;75378;-25
2022/08/01 08:44:38;;;;;;;4.10;2.60;;;;;;;24.99;56.58;98387.46;104897;1271;61886;-25
2022/08/01 08:47:11;;;;;;;4.30;2.80;;;;;;;25.00;56.78;98388.48;104671;1271;61566;-25
2022/08/01 08:49:45;;;;;;;2.90;2.30;;;;;;;25.08;57.16;98390.73;104706;1271;75617;-24
2022/08/01 08:52:15;;;;;;;3.80;2.50;;;;;;;25.17;55.69;98391.48;104739;1271;75658;-25
2022/08/01 08:54:42;;;;;;;4.60;3.00;;;;;;;25.28;55.97;98387.40;104785;1271;74376;-25
2022/08/01 08:57:10;;;;;;;3.90;2.90;;;;;;;25.32;56.58;98384.29;104870;1271;61153;-25
2022/08/01 08:59:38;;;;;;;3.90;2.80;;;;;;;25.55;56.03;98389.31;104984;1271;62901;-25
2022/08/01 09:02:07;;;;;;;4.10;2.70;;;;;;;25.65;55.64;98391.80;104822;1271;74608;-25
2022/08/01 09:04:35;;;;;;;2.50;2.20;;;;;;;25.90;55.16;98386.23;104664;1271;76021;-25
2022/08/01 09:07:04;;;;;;;4.60;2.70;;;;;;;26.00;55.38;98383.40;105063;1271;75355;-25
2022/08/01 09:09:32;;;;;;;3.80;2.60;;;;;;;25.89;54.30;98385.30;105118;1271;61742;-23
2022/08/01 09:11:59;;;;;;;4.30;2.30;;;;;;;25.95;53.88;98387.91;105095;1271;63284;-24
2022/08/01 09:14:29;;;;;;;5.80;2.80;;;;;;;26.00;54.12;98386.94;104856;1271;76415;-24
2022/08/01 09:17:06;;;;;;;3.20;2.50;;;;;;;26.00;55.62;98387.46;104879;1271;76043;-24
2022/08/01 09:19:35;;;;;;;4.20;3.30;;;;;;;25.82;54.24;98382.42;105138;1271;74153;-26
2022/08/01 09:22:07;;;;;;;;;;;;;;;25.66;54.60;98379.27;104945;1271;62544;-22
2022/08/01 09:24:36;;;;;;;2.90;2.70;;;;;;;25.57;55.69;98378.27;104870;1271;61037;-24
2022/08/01 09:27:31;;;;;;;3.60;2.70;;;;;;;25.53;55.77;98378.16;104998;1271;76644;-23
2022/08/01 09:30:17;;;;;;;3.10;2.70;;;;;;;25.56;55.74;98379.38;105197;1273;76772;-24
2022/08/01 09:33:01;;;;;;;5.00;2.60;;;;;;;25.58;55.22;98379.67;104883;1271;74358;-24
2022/08/01 09:35:45;;;;;;;5.10;2.60;;;;;;;25.55;55.21;98381.23;104626;1272;63135;-24
2022/08/01 09:38:16;;;;;;;2.80;2.50;;;;;;;25.68;55.59;98385.98;104943;1271;61529;-25
2022/08/01 09:40:55;;;;;;;4.00;2.90;;;;;;;25.87;55.69;98381.23;104864;1271;76856;-25
2022/08/01 09:43:26;;;;;;;2.90;2.60;;;;;;;25.92;55.07;98382.59;104770;1271;77122;-25
2022/08/01 09:45:54;;;;;;;2.80;2.50;;;;;;;25.89;55.48;98383.13;104655;1272;74471;-24
2022/08/01 09:48:24;;;;;;;4.60;2.80;;;;;;;26.01;53.99;98378.63;104875;1271;62817;-25
2022/08/01 09:50:56;;;;;;;4.00;2.90;;;;;;;26.15;53.86;98375.38;105111;1271;63032;-25
2022/08/01 09:53:47;;;;;;;4.40;2.70;;;;;;;25.82;53.95;98377.46;104860;1271;76795;-25
2022/08/01 09:56:19;;;;;;;2.90;2.60;;;;;;;25.89;54.74;98376.46;105131;1271;74897;-25
2022/08/01 09:58:55;;;;;;;2.90;2.40;;;;;;;26.03;54.90;98377.26;104823;1271;75111;-25
2022/08/01 10:01:27;;;;;;;2.70;2.30;;;;;;;26.18;53.07;98379.29;105100;1271;61735;-25
2022/08/01 10:04:05;;;;;;;3.30;2.90;;;;;;;26.27;54.12;98375.58;104929;1271;61980;-25
2022/08/01 10:06:40;;;;;;;3.10;2.80;;;;;;;26.20;54.32;98377.23;104996;1271;75899;-25
2022/08/01 10:09:08;;;;;;;2.90;2.60;;;;;;;26.19;54.25;98380.05;104728;1271;75880;-25
2022/08/01 10:11:38;;;;;;;3.20;2.50;;;;;;;26.28;52.74;98385.52;104810;1271;75290;-25
2022/08/01 10:14:13;;;;;;;4.20;2.70;;;;;;;26.43;52.65;98376.48;104815;1271;61664;-25
2022/08/01 10:16:44;;;;;;;3.40;2.60;;;;;;;26.64;53.47;98377.90;104736;1271;62847;-25
2022/08/01 10:19:11;;;;;;;3.30;2.40;;;;;;;26.82;52.58;98377.07;104838;1271;76591;-25
2022/08/01 10:21:43;;;;;;;4.10;2.90;;;;;;;26.79;52.03;98375.33;104743;1271;76079;-24
2022/08/01 10:24:29;;;;;;;4.00;2.70;;;;;;;26.25;53.64;98378.77;104698;1271;74162;-25
2022/08/01 10:27:04;;;;;;;4.90;2.70;;;;;;;26.03;54.35;98385.63;104700;1271;62501;-25
2022/08/01 10:29:42;;;;;;;6.80;2.50;;;;;;;26.17;54.03;98387.10;104721;1272;61090;-24
2022/08/01 10:32:13;;;;;;;2.90;2.60;;;;;;;26.36;52.97;98385.52;104881;1271;75500;-25
2022/08/01 10:34:40;;;;;;;3.80;2.70;;;;;;;26.65;53.01;98381.05;104690;1272;76553;-25
2022/08/01 10:37:11;;;;;;;3.00;2.40;;;;;;;26.85;51.88;98380.48;105051;1271;74248;-25
2022/08/01 10:39:39;;;;;;;3.50;2.50;;;;;;;26.89;51.70;98384.05;105097;1271;63071;-25
2022/08/01 10:42:07;;;;;;;4.00;2.60;;;;;;;26.69;51.35;98384.90;105159;1271;61805;-25
2022/08/01 10:44:41;;;;;;;4.20;2.80;;;;;;;26.60;52.60;98379.44;104797;1274;76800;-24
2022/08/01 10:47:13;;;;;;;3.10;2.80;;;;;;;26.62;52.06;98384.39;104995;1271;76054;-25
2022/08/01 10:49:51;;;;;;;5.90;2.90;;;;;;;27.19;51.33;98385.68;104882;1271;74222;-24
2022/08/01 10:52:19;;;;;;;2.70;2.40;;;;;;;27.51;51.73;98383.83;104707;1272;63198;-25
2022/08/01 10:54:48;;;;;;;4.80;2.60;;;;;;;27.15;51.09;98382.31;104989;1271;61684;-25
2022/08/01 10:57:18;;;;;;;3.70;2.80;;;;;;;26.95;52.39;98381.83;104890;1271;76670;-25
2022/08/01 10:59:54;;;;;;;4.10;2.70;;;;;;;27.20;52.50;98379.85;104768;1271;76693;-25
2022/08/01 11:02:29;;;;;;;3.90;2.60;;;;;;;27.49;50.34;98379.16;104798;1271;75450;-25
2022/08/01 11:05:01;;;;;;;3.40;2.70;;;;;;;27.58;49.05;98379.52;104669;1274;62649;-25
2022/08/01 11:07:53;;;;;;;3.00;2.30;;;;;;;27.50;48.50;98381.27;104666;1271;62331;-24
2022/08/01 11:10:39;;;;;;;2.90;2.50;;;;;;;27.88;50.38;98387.00;104855;1271;76604;-25
2022/08/01 11:13:11;;;;;;;5.40;2.60;;;;;;;28.08;49.13;98387.00;104678;1272;76950;-25
2022/08/01 11:15:40;;;;;;;3.40;2.50;;;;;;;28.41;47.97;98392.00;104848;1271;74269;-25
2022/08/01 11:18:26;;;;;;;3.80;2.60;;;;;;;28.48;48.10;98390.48;104735;1271;63165;-25
2022/08/01 11:21:01;;;;;;;4.00;2.60;;;;;;;28.65;47.89;98387.80;104771;1272;63041;-25
2022/08/01 11:23:50;;;;;;;2.80;2.40;;;;;;;28.15;46.82;98386.84;104999;1271;76541;-25
2022/08/01 11:26:17;;;;;;;3.80;2.00;;;;;;;28.00;47.83;98387.36;104748;1271;76916;-24
2022/08/01 11:29:13;;;;;;;3.20;2.40;;;;;;;27.85;48.90;98377.19;104806;1271;75124;-25
2022/08/01 11:31:47;;;;;;;4.20;2.50;;;;;;;27.84;49.75;98380.66;105017;1274;62248;-25
2022/08/01 11:34:15;;;;;;;5.00;2.30;;;;;;;27.90;47.14;98378.40;105108;1271;61718;-24
2022/08/01 11:36:42;;;;;;;4.90;2.00;;;;;;;27.76;47.81;98372.52;104993;1274;75697;-25
2022/08/01 11:39:26;;;;;;;5.00;2.50;;;;;;;27.70;46.21;98373.27;104819;1271;76935;-25
2022/08/01 11:41:55;;;;;;;3.60;2.40;;;;;;;27.46;48.53;98379.28;104890;1271;74461;-25